Startpagina
METAR-TAF:

METAR-TAF

Vliegvelden :

Puerto Francisco de Orellana, Ecuador

breedte: 00-27-46S, lengte: 076-59-12W, hoogte: 254 m

Actueel weer

Dit bericht is 32 minuten geleden gemaakt, om 16:00 UTC
Wind 4 kt uit het oosten
Temperatuur 25°C
Vochtigheid 94%
Druk 1015 hPa
Zicht: 2000 m
Geheel bewolkt op 1600 ft
lichte regen

METAR: SECO 281600Z 08004KT 5000 2000SE -RA OVC016 25/24 Q1015 RMK A2999

Tijdstip: 11:32 (16:32 UTC)


TAF: ontbreekt

Waarnemingen en weersverwachtingen van meer dan 4000 vliegvelden (METAR en TAF).

De beschikbare stations zijn de gele en rode punten op de kaart.

Ga met uw muis naar het station om de naam te zien.

Klik dan om waarnemingen en weersverwachtingen te zien.

kaart wijzigen: klik op de groene knoppen met een zwart kruis om in te zoomen, op de groene knop met een streepje om uit te zoomen of op de groene pijlen voor aangrenzende kaarten.


METAR-TAF: